Time;durP1;ratioP1;P1;durP2;ratioP2;P2;SDS_P1;SDS_P2;PMS_P1;PMS_P2;Temp;Humidity;BMP_temperature;BMP_pressure;BME280_temperature;BME280_humidity;BME280_pressure;Samples;Min_cycle;Max_cycle;Signal;HPM_P1;HPM_P2
2021/01/15 00:03:56;;;;;;;15.77;6.85;;;;;;;;;;8250761;28;20370;-71
2021/01/15 00:07:59;;;;;;;10.45;6.38;;;;;;;;;;8250255;28;20095;-70
2021/01/15 00:12:03;;;;;;;12.43;6.43;;;;;;;;;;8250779;28;20041;-71
2021/01/15 00:16:06;;;;;;;14.15;7.65;;;;;;;;;;8248869;28;20467;-72
2021/01/15 00:20:11;;;;;;;13.70;6.47;;;;;;;;;;8247813;28;20335;-73
2021/01/15 00:24:14;;;;;;;14.30;6.43;;;;;;;;;;8249569;28;20364;-71
2021/01/15 00:28:17;;;;;;;11.98;6.82;;;;;;;;;;8248424;28;20483;-71
2021/01/15 00:32:20;;;;;;;14.90;7.60;;;;;;;;;;8256211;28;20112;-71
2021/01/15 00:36:24;;;;;;;16.23;7.88;;;;;;;;;;8255017;28;20076;-71
2021/01/15 00:40:27;;;;;;;14.80;7.18;;;;;;;;;;8256443;28;20505;-70
2021/01/15 00:44:30;;;;;;;18.80;7.93;;;;;;;;;;8255516;28;20067;-70
2021/01/15 00:48:33;;;;;;;15.77;6.95;;;;;;;;;;8255902;28;20380;-72
2021/01/15 00:52:36;;;;;;;38.25;14.32;;;;;;;;;;8254071;28;20353;-71
2021/01/15 00:56:39;;;;;;;24.35;9.07;;;;;;;;;;8256319;28;20509;-70
2021/01/15 01:00:47;;;;;;;27.33;11.25;;;;;;;;;;8254258;28;20387;-72
2021/01/15 01:05:05;;;;;;;24.00;10.68;;;;;;;;;;8254570;28;20551;-69
2021/01/15 01:09:08;;;;;;;23.45;10.00;;;;;;;;;;8253330;28;20387;-71
2021/01/15 01:13:11;;;;;;;22.67;9.85;;;;;;;;;;8254969;28;20446;-69
2021/01/15 01:17:14;;;;;;;18.98;9.25;;;;;;;;;;8255139;28;20484;-71
2021/01/15 01:21:18;;;;;;;21.33;9.20;;;;;;;;;;8254044;28;20472;-70
2021/01/15 01:25:21;;;;;;;24.08;9.77;;;;;;;;;;8254655;28;20626;-72
2021/01/15 01:29:23;;;;;;;21.73;10.45;;;;;;;;;;8256873;28;20382;-69
2021/01/15 01:33:27;;;;;;;20.75;9.95;;;;;;;;;;8256460;28;20416;-72
2021/01/15 01:37:30;;;;;;;22.02;10.23;;;;;;;;;;8255403;28;20491;-70
2021/01/15 01:41:33;;;;;;;23.30;9.85;;;;;;;;;;8255366;28;20041;-71
2021/01/15 01:45:36;;;;;;;19.15;9.35;;;;;;;;;;8256292;28;20459;-72
2021/01/15 01:49:39;;;;;;;28.05;11.82;;;;;;;;;;8253727;28;20482;-72
2021/01/15 01:53:42;;;;;;;37.30;12.30;;;;;;;;;;8252402;28;20760;-73
2021/01/15 01:57:46;;;;;;;38.10;12.13;;;;;;;;;;8252230;28;20511;-70
2021/01/15 02:01:49;;;;;;;34.70;11.85;;;;;;;;;;8252230;28;20489;-71
2021/01/15 02:05:52;;;;;;;24.20;10.73;;;;;;;;;;8252474;28;20475;-70
2021/01/15 02:09:55;;;;;;;24.60;9.80;;;;;;;;;;8251056;28;20459;-71
2021/01/15 02:14:22;;;;;;;24.67;11.00;;;;;;;;;;8252666;28;20415;-73
2021/01/15 02:18:54;;;;;;;21.80;9.50;;;;;;;;;;8252630;28;20414;-72
2021/01/15 02:23:19;;;;;;;22.42;10.00;;;;;;;;;;8252838;28;20395;-69
2021/01/15 02:27:50;;;;;;;20.17;9.57;;;;;;;;;;8251936;28;20724;-70
2021/01/15 02:32:27;;;;;;;22.83;9.05;;;;;;;;;;8252810;28;20391;-71
2021/01/15 02:37:17;;;;;;;26.02;9.90;;;;;;;;;;8253336;28;20494;-70
2021/01/15 02:41:30;;;;;;;20.63;9.68;;;;;;;;;;8250742;28;20510;-72
2021/01/15 02:45:34;;;;;;;22.40;9.35;;;;;;;;;;8251684;28;20463;-71
2021/01/15 02:49:37;;;;;;;20.85;9.88;;;;;;;;;;8267204;28;20045;-72
2021/01/15 02:53:40;;;;;;;19.27;9.73;;;;;;;;;;8249719;28;20476;-72
2021/01/15 02:57:44;;;;;;;27.25;11.93;;;;;;;;;;8252497;28;20071;-73
2021/01/15 03:02:04;;;;;;;22.50;11.27;;;;;;;;;;8252896;28;20391;-72
2021/01/15 03:06:16;;;;;;;28.48;12.23;;;;;;;;;;8199756;28;20377;-70
2021/01/15 03:10:25;;;;;;;27.65;11.68;;;;;;;;;;8213799;28;20460;-70
2021/01/15 03:14:30;;;;;;;27.75;11.50;;;;;;;;;;8198985;28;20053;-70
2021/01/15 03:18:34;;;;;;;25.90;11.65;;;;;;;;;;8214346;28;20399;-72
2021/01/15 03:22:44;;;;;;;28.23;11.02;;;;;;;;;;8214941;28;20520;-71
2021/01/15 03:26:47;;;;;;;24.92;10.73;;;;;;;;;;8198932;28;20407;-72
2021/01/15 03:30:50;;;;;;;33.22;14.23;;;;;;;;;;8214428;28;20464;-70
2021/01/15 03:34:53;;;;;;;26.95;11.80;;;;;;;;;;8218032;28;20483;-68
2021/01/15 03:38:56;;;;;;;25.98;10.52;;;;;;;;;;8251295;28;20060;-70
2021/01/15 03:43:00;;;;;;;25.33;11.05;;;;;;;;;;8266039;28;20452;-71
2021/01/15 03:47:03;;;;;;;21.80;10.77;;;;;;;;;;8251243;28;20356;-71
2021/01/15 03:51:06;;;;;;;28.25;11.23;;;;;;;;;;8252214;28;20495;-70
2021/01/15 03:55:10;;;;;;;20.98;10.15;;;;;;;;;;8267168;28;20764;-70
2021/01/15 03:59:14;;;;;;;27.65;11.95;;;;;;;;;;8251133;28;20509;-73
2021/01/15 04:03:16;;;;;;;37.38;15.25;;;;;;;;;;8249979;28;20357;-69
2021/01/15 04:07:19;;;;;;;30.40;13.32;;;;;;;;;;8255528;28;20479;-72
2021/01/15 04:11:22;;;;;;;35.85;12.73;;;;;;;;;;8255738;28;20088;-70
2021/01/15 04:15:26;;;;;;;44.22;13.75;;;;;;;;;;8256824;28;20053;-72
2021/01/15 04:19:29;;;;;;;33.63;12.02;;;;;;;;;;8254978;28;20052;-72
2021/01/15 04:23:32;;;;;;;31.13;11.70;;;;;;;;;;8255774;28;20360;-71
2021/01/15 04:27:38;;;;;;;39.55;12.55;;;;;;;;;;8256451;28;20410;-70
2021/01/15 04:31:41;;;;;;;42.10;12.77;;;;;;;;;;8257304;28;20494;-70
2021/01/15 04:35:44;;;;;;;32.45;10.73;;;;;;;;;;8257213;28;20372;-69
2021/01/15 04:39:47;;;;;;;30.67;11.57;;;;;;;;;;8255540;28;20474;-72
2021/01/15 04:43:56;;;;;;;24.58;10.52;;;;;;;;;;8256317;28;20483;-68
2021/01/15 04:48:00;;;;;;;27.67;14.00;;;;;;;;;;8256682;28;20475;-70
2021/01/15 04:52:04;;;;;;;29.90;12.95;;;;;;;;;;8257257;28;20399;-70
2021/01/15 04:56:12;;;;;;;26.35;12.85;;;;;;;;;;8256149;28;20399;-70
2021/01/15 05:00:25;;;;;;;22.85;10.52;;;;;;;;;;8257223;28;20361;-71
2021/01/15 05:04:30;;;;;;;54.13;14.77;;;;;;;;;;8256916;28;20397;-73
2021/01/15 05:08:36;;;;;;;43.95;17.25;;;;;;;;;;8253223;28;20471;-71
2021/01/15 05:12:45;;;;;;;28.17;10.13;;;;;;;;;;8255961;28;20418;-72
2021/01/15 05:16:50;;;;;;;;;;;;;;;;;;8254164;28;20429;-69
2021/01/15 05:20:53;;;;;;;19.83;8.25;;;;;;;;;;8270066;28;20365;-69
2021/01/15 05:24:56;;;;;;;15.55;7.55;;;;;;;;;;8255587;28;20075;-71
2021/01/15 05:29:04;;;;;;;19.35;8.13;;;;;;;;;;8256212;28;20388;-70
2021/01/15 05:33:17;;;;;;;16.17;8.07;;;;;;;;;;8254721;28;20415;-72
2021/01/15 05:37:21;;;;;;;15.35;7.43;;;;;;;;;;8254076;28;20075;-71
2021/01/15 05:41:25;;;;;;;15.50;7.78;;;;;;;;;;8255528;28;20049;-69
2021/01/15 05:45:28;;;;;;;18.42;7.88;;;;;;;;;;8253388;28;20468;-72
2021/01/15 05:49:31;;;;;;;15.20;7.70;;;;;;;;;;8252746;28;20468;-70
2021/01/15 05:53:42;;;;;;;13.93;6.72;;;;;;;;;;8255142;28;20471;-68
2021/01/15 05:57:48;;;;;;;13.73;7.47;;;;;;;;;;8255537;28;20475;-71
2021/01/15 06:02:06;;;;;;;14.52;7.57;;;;;;;;;;8255058;28;20375;-70
2021/01/15 06:06:09;;;;;;;13.70;7.35;;;;;;;;;;8253396;28;20045;-70
2021/01/15 06:10:12;;;;;;;14.52;7.15;;;;;;;;;;8252431;28;20056;-69
2021/01/15 06:14:27;;;;;;;14.57;6.80;;;;;;;;;;8254191;28;20494;-70
2021/01/15 06:18:30;;;;;;;14.57;6.88;;;;;;;;;;8255753;28;20475;-69
2021/01/15 06:22:47;;;;;;;19.08;8.27;;;;;;;;;;8233938;28;20053;-71
2021/01/15 06:27:05;;;;;;;15.07;6.80;;;;;;;;;;8253992;28;20411;-70
2021/01/15 06:31:08;;;;;;;;;;;;;;;;;;8253643;28;20471;-71
2021/01/15 06:35:33;;;;;;;12.77;6.45;;;;;;;;;;8253108;28;20347;-71
2021/01/15 06:39:37;;;;;;;14.20;6.90;;;;;;;;;;8251292;28;20408;-71
2021/01/15 06:43:40;;;;;;;8.30;5.35;;;;;;;;;;8251835;28;20482;-71
2021/01/15 06:47:46;;;;;;;11.80;5.28;;;;;;;;;;8252476;28;20045;-69
2021/01/15 06:51:59;;;;;;;13.82;5.95;;;;;;;;;;8251946;28;20399;-71
2021/01/15 06:56:05;;;;;;;14.70;6.47;;;;;;;;;;8251218;28;20494;-68
2021/01/15 07:00:13;;;;;;;12.15;6.43;;;;;;;;;;8253610;28;20378;-69
2021/01/15 07:04:27;;;;;;;12.68;6.45;;;;;;;;;;8251849;28;20482;-69
2021/01/15 07:08:31;;;;;;;16.38;6.47;;;;;;;;;;8253016;28;20391;-71
2021/01/15 07:12:44;;;;;;;11.70;5.95;;;;;;;;;;8250374;28;20452;-68
2021/01/15 07:16:53;;;;;;;10.10;5.80;;;;;;;;;;8249907;28;20479;-71
2021/01/15 07:20:57;;;;;;;14.93;6.63;;;;;;;;;;8251468;28;20386;-69
2021/01/15 07:25:05;;;;;;;16.00;7.38;;;;;;;;;;8251167;28;20654;-70
2021/01/15 07:29:16;;;;;;;13.57;7.07;;;;;;;;;;8250690;28;20383;-69
2021/01/15 07:33:21;;;;;;;12.35;6.57;;;;;;;;;;8250680;28;20364;-70
2021/01/15 07:37:27;;;;;;;12.10;6.55;;;;;;;;;;8248822;28;20392;-69
2021/01/15 07:41:56;;;;;;;9.82;5.55;;;;;;;;;;8280121;28;20386;-69
2021/01/15 07:46:01;;;;;;;13.10;6.65;;;;;;;;;;8263183;28;20420;-68
2021/01/15 07:50:06;;;;;;;16.50;6.80;;;;;;;;;;8277483;28;20387;-72
2021/01/15 07:54:10;;;;;;;11.80;6.45;;;;;;;;;;8212155;28;20370;-67
2021/01/15 07:58:15;;;;;;;18.75;8.43;;;;;;;;;;8263415;28;20391;-69
2021/01/15 08:02:19;;;;;;;17.83;6.97;;;;;;;;;;8280165;28;20368;-69
2021/01/15 08:06:24;;;;;;;18.30;6.82;;;;;;;;;;8279233;28;20398;-71
2021/01/15 08:10:27;;;;;;;15.73;7.05;;;;;;;;;;8258256;28;20472;-69
2021/01/15 08:14:32;;;;;;;12.15;6.30;;;;;;;;;;8252286;28;20452;-69
2021/01/15 08:18:36;;;;;;;13.30;5.85;;;;;;;;;;8250747;28;20061;-70
2021/01/15 08:22:39;;;;;;;21.55;9.75;;;;;;;;;;8248739;28;20387;-70
2021/01/15 08:26:52;;;;;;;18.33;7.97;;;;;;;;;;8249749;28;20378;-70
2021/01/15 08:31:07;;;;;;;34.80;14.45;;;;;;;;;;8249596;28;20406;-71
2021/01/15 08:35:23;;;;;;;50.42;21.98;;;;;;;;;;8250399;28;20494;-69
2021/01/15 08:39:53;;;;;;;26.42;11.50;;;;;;;;;;8249745;28;20483;-69
2021/01/15 08:43:56;;;;;;;40.85;17.08;;;;;;;;;;8233511;28;20475;-70
2021/01/15 08:48:00;;;;;;;15.25;7.45;;;;;;;;;;8250419;28;20390;-69
2021/01/15 08:52:04;;;;;;;11.63;6.25;;;;;;;;;;8250228;28;20426;-72
2021/01/15 08:56:07;;;;;;;16.73;8.05;;;;;;;;;;8255346;28;20380;-71
2021/01/15 09:00:13;;;;;;;51.95;20.55;;;;;;;;;;8255244;28;20421;-70
2021/01/15 09:04:17;;;;;;;27.77;11.57;;;;;;;;;;8255074;28;20414;-68
2021/01/15 09:08:20;;;;;;;22.50;8.48;;;;;;;;;;8255163;28;20045;-70
2021/01/15 09:12:27;;;;;;;72.85;20.25;;;;;;;;;;8254985;28;20464;-72
2021/01/15 09:16:30;;;;;;;142.15;34.08;;;;;;;;;;8254978;28;20068;-71
2021/01/15 09:20:33;;;;;;;52.28;16.55;;;;;;;;;;8255688;28;20308;-71
2021/01/15 09:24:37;;;;;;;30.83;13.02;;;;;;;;;;8256088;28;20049;-73
2021/01/15 09:28:40;;;;;;;34.90;15.80;;;;;;;;;;8254186;28;20487;-73
2021/01/15 09:32:45;;;;;;;39.88;16.17;;;;;;;;;;8254419;28;20386;-70
2021/01/15 09:36:51;;;;;;;1999.90;859.35;;;;;;;;;;8252218;28;20061;-73
2021/01/15 09:40:54;;;;;;;276.23;77.38;;;;;;;;;;8252876;28;20493;-71
2021/01/15 09:44:57;;;;;;;30.70;13.75;;;;;;;;;;8253855;28;20167;-71
2021/01/15 09:49:01;;;;;;;17.27;7.78;;;;;;;;;;8242881;28;20386;-70
2021/01/15 09:53:04;;;;;;;17.55;8.02;;;;;;;;;;8254339;28;20387;-71
2021/01/15 09:57:07;;;;;;;26.45;11.00;;;;;;;;;;8252911;28;20391;-72
2021/01/15 10:01:10;;;;;;;24.95;10.88;;;;;;;;;;8254449;28;20383;-70
2021/01/15 10:05:13;;;;;;;29.65;10.45;;;;;;;;;;8236547;28;20439;-70
2021/01/15 10:09:16;;;;;;;33.75;13.43;;;;;;;;;;8261903;28;20392;-71
2021/01/15 10:13:20;;;;;;;29.90;13.43;;;;;;;;;;8253889;28;20488;-72
2021/01/15 10:17:23;;;;;;;39.17;15.82;;;;;;;;;;8254364;28;20379;-70
2021/01/15 10:21:28;;;;;;;60.55;24.85;;;;;;;;;;8251955;28;20495;-72
2021/01/15 10:25:31;;;;;;;94.70;23.08;;;;;;;;;;8252088;28;20502;-72
2021/01/15 10:29:35;;;;;;;59.35;16.42;;;;;;;;;;8233574;28;20521;-70
2021/01/15 10:33:38;;;;;;;87.18;25.27;;;;;;;;;;8252576;28;20479;-70
2021/01/15 10:37:42;;;;;;;40.42;11.77;;;;;;;;;;8267668;28;20475;-71
2021/01/15 10:41:51;;;;;;;37.75;13.32;;;;;;;;;;8251000;28;20197;-68
2021/01/15 10:45:55;;;;;;;19.50;8.23;;;;;;;;;;8254180;28;20375;-71
2021/01/15 10:49:59;;;;;;;13.98;7.18;;;;;;;;;;8251547;28;20057;-69
2021/01/15 10:54:03;;;;;;;21.60;9.07;;;;;;;;;;8253886;28;20372;-71
2021/01/15 10:58:06;;;;;;;45.80;13.00;;;;;;;;;;8252413;28;20395;-71
2021/01/15 11:02:09;;;;;;;23.77;8.45;;;;;;;;;;8253061;28;20175;-68
2021/01/15 11:06:20;;;;;;;26.17;12.25;;;;;;;;;;8251044;28;20589;-67
2021/01/15 11:10:23;;;;;;;41.95;18.67;;;;;;;;;;8218513;28;20388;-71
2021/01/15 11:14:26;;;;;;;22.30;11.68;;;;;;;;;;8201734;28;20379;-69
2021/01/15 11:18:29;;;;;;;16.23;8.13;;;;;;;;;;8217327;28;20376;-70
2021/01/15 11:22:33;;;;;;;315.77;26.23;;;;;;;;;;8219295;28;20487;-69
2021/01/15 11:26:36;;;;;;;16.00;9.18;;;;;;;;;;8219716;28;20427;-70
2021/01/15 11:30:39;;;;;;;112.38;50.20;;;;;;;;;;8218794;28;20053;-70
2021/01/15 11:34:42;;;;;;;29.75;15.00;;;;;;;;;;8219135;28;20079;-71
2021/01/15 11:38:46;;;;;;;11.63;4.78;;;;;;;;;;8218167;28;20503;-69
2021/01/15 11:42:58;;;;;;;17.45;7.15;;;;;;;;;;8220364;28;20448;-70
2021/01/15 11:47:02;;;;;;;24.75;11.85;;;;;;;;;;8249229;28;20573;-68
2021/01/15 11:51:09;;;;;;;31.77;12.77;;;;;;;;;;8251647;28;20517;-70
2021/01/15 11:55:13;;;;;;;63.38;18.58;;;;;;;;;;8252581;28;20099;-70
2021/01/15 11:59:16;;;;;;;78.03;35.13;;;;;;;;;;8250237;28;20486;-68
2021/01/15 12:03:20;;;;;;;92.55;31.17;;;;;;;;;;8265575;28;20049;-68
2021/01/15 12:07:24;;;;;;;74.18;21.90;;;;;;;;;;8252208;28;20506;-68
2021/01/15 12:11:30;;;;;;;229.40;92.70;;;;;;;;;;8233459;28;20410;-69
2021/01/15 12:15:33;;;;;;;267.40;95.53;;;;;;;;;;8248862;28;20479;-68
2021/01/15 12:19:36;;;;;;;98.80;31.60;;;;;;;;;;8249314;28;20529;-68
2021/01/15 12:23:39;;;;;;;136.65;41.45;;;;;;;;;;8248692;28;20068;-70
2021/01/15 12:27:42;;;;;;;83.05;25.88;;;;;;;;;;8252955;28;20376;-70
2021/01/15 12:31:45;;;;;;;233.07;77.97;;;;;;;;;;8255391;28;20480;-71
2021/01/15 12:35:51;;;;;;;44.22;16.30;;;;;;;;;;8240090;28;20447;-71
2021/01/15 12:39:56;;;;;;;51.97;20.27;;;;;;;;;;8255017;28;20371;-71
2021/01/15 12:44:00;;;;;;;230.73;86.55;;;;;;;;;;8255600;28;20533;-69
2021/01/15 12:48:04;;;;;;;72.25;25.95;;;;;;;;;;8272355;28;20056;-69
2021/01/15 12:52:07;;;;;;;44.67;17.85;;;;;;;;;;8256334;28;20107;-68
2021/01/15 12:56:16;;;;;;;42.63;14.90;;;;;;;;;;8255292;28;20071;-68
2021/01/15 13:00:20;;;;;;;24.63;10.88;;;;;;;;;;8255399;28;20053;-69
2021/01/15 13:04:28;;;;;;;24.95;9.43;;;;;;;;;;8254252;28;20467;-69
2021/01/15 13:08:31;;;;;;;24.63;8.95;;;;;;;;;;8255334;28;20390;-70
2021/01/15 13:12:39;;;;;;;57.25;20.98;;;;;;;;;;8254493;28;20392;-70
2021/01/15 13:16:42;;;;;;;29.27;11.73;;;;;;;;;;8256066;28;20487;-68
2021/01/15 13:20:46;;;;;;;30.55;12.32;;;;;;;;;;8236288;28;20472;-70
2021/01/15 13:24:49;;;;;;;35.30;12.70;;;;;;;;;;8254295;28;20361;-70
2021/01/15 13:28:53;;;;;;;46.80;16.20;;;;;;;;;;8255975;28;20062;-68
2021/01/15 13:32:57;;;;;;;74.25;22.75;;;;;;;;;;8255278;28;20379;-71
2021/01/15 13:37:01;;;;;;;44.40;15.88;;;;;;;;;;8254176;28;20356;-68
2021/01/15 13:41:04;;;;;;;41.38;13.27;;;;;;;;;;8254220;28;20395;-70
2021/01/15 13:45:10;;;;;;;47.97;16.10;;;;;;;;;;8253956;28;20379;-68
2021/01/15 13:49:13;;;;;;;40.35;13.30;;;;;;;;;;8252868;28;20053;-70
2021/01/15 13:53:21;;;;;;;36.10;14.85;;;;;;;;;;8254468;28;20447;-71
2021/01/15 13:57:24;;;;;;;30.00;13.17;;;;;;;;;;8254125;28;20483;-68
2021/01/15 14:01:30;;;;;;;32.15;13.65;;;;;;;;;;8238578;28;20485;-69
2021/01/15 14:05:33;;;;;;;52.00;18.05;;;;;;;;;;8252386;28;20711;-70
2021/01/15 14:09:36;;;;;;;215.50;60.50;;;;;;;;;;8253100;28;20075;-71
2021/01/15 14:13:40;;;;;;;273.90;75.90;;;;;;;;;;8255811;28;20483;-71
2021/01/15 14:17:43;;;;;;;249.32;70.28;;;;;;;;;;8253548;28;20719;-70
2021/01/15 14:21:47;;;;;;;133.93;53.28;;;;;;;;;;8250571;28;20506;-71
2021/01/15 14:25:51;;;;;;;68.57;24.15;;;;;;;;;;8253524;28;20045;-71
2021/01/15 14:29:54;;;;;;;144.98;37.78;;;;;;;;;;8254336;28;20740;-71
2021/01/15 14:33:58;;;;;;;90.15;27.27;;;;;;;;;;8254253;28;20472;-69
2021/01/15 14:38:01;;;;;;;42.42;16.63;;;;;;;;;;8253492;28;20451;-72
2021/01/15 14:42:05;;;;;;;43.72;15.65;;;;;;;;;;8253109;28;20475;-71
2021/01/15 14:46:10;;;;;;;46.67;18.67;;;;;;;;;;8235799;28;20375;-70
2021/01/15 14:50:17;;;;;;;92.18;29.60;;;;;;;;;;8250959;28;20422;-71
2021/01/15 14:54:21;;;;;;;108.78;38.28;;;;;;;;;;8252361;28;20387;-70
2021/01/15 14:58:28;;;;;;;76.22;32.35;;;;;;;;;;8251587;28;20071;-69
2021/01/15 15:02:31;;;;;;;92.90;32.92;;;;;;;;;;8267219;28;20482;-70
2021/01/15 15:06:37;;;;;;;75.25;31.23;;;;;;;;;;8251795;28;20459;-72
2021/01/15 15:10:40;;;;;;;82.68;32.22;;;;;;;;;;8250205;28;20475;-71
2021/01/15 15:14:44;;;;;;;55.45;23.60;;;;;;;;;;8250379;28;20558;-71
2021/01/15 15:18:47;;;;;;;65.80;27.73;;;;;;;;;;8246684;28;20801;-69
2021/01/15 15:22:50;;;;;;;39.45;15.38;;;;;;;;;;8250873;28;20075;-70
2021/01/15 15:26:54;;;;;;;152.82;64.13;;;;;;;;;;8199859;28;20058;-71
2021/01/15 15:30:57;;;;;;;39.55;15.02;;;;;;;;;;8215934;28;20048;-73
2021/01/15 15:35:00;;;;;;;98.07;35.30;;;;;;;;;;8215694;28;20452;-71
2021/01/15 15:39:05;;;;;;;101.95;36.45;;;;;;;;;;8216289;28;20464;-69
2021/01/15 15:43:08;;;;;;;55.20;21.02;;;;;;;;;;8215728;28;20479;-71
2021/01/15 15:47:11;;;;;;;332.30;98.43;;;;;;;;;;8214701;28;20503;-69
2021/01/15 15:51:17;;;;;;;1395.80;573.88;;;;;;;;;;8214785;28;20510;-70
2021/01/15 15:55:22;;;;;;;239.98;73.88;;;;;;;;;;8215198;28;20490;-69
2021/01/15 15:59:25;;;;;;;337.30;90.18;;;;;;;;;;8198888;28;20491;-69
2021/01/15 16:03:33;;;;;;;602.47;189.40;;;;;;;;;;8221178;28;20110;-71
2021/01/15 16:07:38;;;;;;;254.27;70.70;;;;;;;;;;8241092;28;20470;-70
2021/01/15 16:11:41;;;;;;;358.20;102.65;;;;;;;;;;8240881;28;20049;-69
2021/01/15 16:15:44;;;;;;;216.15;62.50;;;;;;;;;;8256445;28;20411;-69
2021/01/15 16:19:48;;;;;;;117.22;36.00;;;;;;;;;;8255239;28;20083;-72
2021/01/15 16:23:52;;;;;;;274.30;93.00;;;;;;;;;;8256298;28;20370;-71
2021/01/15 16:27:59;;;;;;;340.33;112.90;;;;;;;;;;8272669;28;20049;-69
2021/01/15 16:32:02;;;;;;;284.10;93.95;;;;;;;;;;8256938;28;20459;-70
2021/01/15 16:36:06;;;;;;;202.63;71.00;;;;;;;;;;8254425;28;20053;-70
2021/01/15 16:40:13;;;;;;;104.38;34.83;;;;;;;;;;8256000;28;20546;-70
2021/01/15 16:44:17;;;;;;;84.60;31.33;;;;;;;;;;8256902;28;20053;-70
2021/01/15 16:48:20;;;;;;;93.60;39.45;;;;;;;;;;8256947;28;20566;-70
2021/01/15 16:52:25;;;;;;;116.03;37.47;;;;;;;;;;8215373;28;20456;-75
2021/01/15 16:56:31;;;;;;;248.07;69.88;;;;;;;;;;8256992;28;20491;-71
2021/01/15 17:00:35;;;;;;;91.20;31.40;;;;;;;;;;8255480;28;20375;-72
2021/01/15 17:04:39;;;;;;;111.18;36.25;;;;;;;;;;8256389;28;20410;-70
2021/01/15 17:08:44;;;;;;;153.88;45.63;;;;;;;;;;8283549;28;20052;-70
2021/01/15 17:12:53;;;;;;;126.88;41.00;;;;;;;;;;8283077;28;20079;-71
2021/01/15 17:16:57;;;;;;;106.32;37.45;;;;;;;;;;8267938;28;20040;-71
2021/01/15 17:21:01;;;;;;;133.98;45.38;;;;;;;;;;8200575;28;20112;-71
2021/01/15 17:25:09;;;;;;;77.88;30.45;;;;;;;;;;8169583;28;20366;-70
2021/01/15 17:29:16;;;;;;;82.40;29.25;;;;;;;;;;8218114;28;20053;-70
2021/01/15 17:33:20;;;;;;;59.30;23.33;;;;;;;;;;8201320;28;20458;-69
2021/01/15 17:37:24;;;;;;;96.57;29.83;;;;;;;;;;8216453;28;20054;-70
2021/01/15 17:41:28;;;;;;;231.77;64.65;;;;;;;;;;8186063;28;20476;-72
2021/01/15 17:45:33;;;;;;;219.80;59.63;;;;;;;;;;8185637;28;20469;-71
2021/01/15 17:49:38;;;;;;;665.55;207.52;;;;;;;;;;8186058;28;20365;-70
2021/01/15 17:53:41;;;;;;;301.58;95.75;;;;;;;;;;8237273;28;20468;-69
2021/01/15 17:57:44;;;;;;;110.53;36.03;;;;;;;;;;8237753;28;20453;-70
2021/01/15 18:01:47;;;;;;;238.75;79.80;;;;;;;;;;8221871;28;20365;-71
2021/01/15 18:05:51;;;;;;;149.80;50.47;;;;;;;;;;8222293;28;20380;-70
2021/01/15 18:09:55;;;;;;;102.30;38.03;;;;;;;;;;8231913;28;20489;-72
2021/01/15 18:18:12;;;;;;;190.15;53.10;;;;;;;;;;8300235;27;21104;-70
2021/01/15 18:22:16;;;;;;;308.77;82.15;;;;;;;;;;8280349;28;20386;-71
2021/01/15 18:27:59;;;;;;;1319.93;464.25;;;;;;;;;;8459770;27;791573;-69
2021/01/15 18:32:03;;;;;;;287.70;100.03;;;;;;;;;;8429942;27;20361;-68
2021/01/15 18:36:08;;;;;;;151.75;60.35;;;;;;;;;;8448773;27;20384;-70
2021/01/15 18:40:20;;;;;;;107.43;41.03;;;;;;;;;;8362470;28;20110;-72
2021/01/15 18:44:24;;;;;;;173.52;75.57;;;;;;;;;;8360970;28;21074;-71
2021/01/15 18:48:27;;;;;;;117.65;45.10;;;;;;;;;;8376448;28;20048;-70
2021/01/15 18:52:31;;;;;;;86.15;27.13;;;;;;;;;;8366995;28;20490;-69
2021/01/15 18:56:40;;;;;;;76.13;30.20;;;;;;;;;;8374322;28;20480;-71
2021/01/15 19:00:43;;;;;;;;;;;;;;;;;;8375261;28;20524;-69
2021/01/15 19:04:52;;;;;;;80.75;33.88;;;;;;;;;;8377201;28;20020;-70
2021/01/15 19:08:55;;;;;;;135.35;43.53;;;;;;;;;;8378439;28;20094;-70
2021/01/15 19:13:00;;;;;;;176.57;56.20;;;;;;;;;;8375744;28;20065;-73
2021/01/15 19:17:03;;;;;;;311.08;94.43;;;;;;;;;;8393875;27;20469;-72
2021/01/15 19:21:09;;;;;;;79.03;30.52;;;;;;;;;;8361036;27;20506;-70
2021/01/15 19:25:12;;;;;;;57.58;22.38;;;;;;;;;;8412055;27;20063;-71
2021/01/15 19:29:17;;;;;;;88.38;30.40;;;;;;;;;;8412033;27;20353;-72
2021/01/15 19:33:21;;;;;;;72.75;27.50;;;;;;;;;;8446630;27;20518;-71
2021/01/15 19:37:25;;;;;;;76.85;26.20;;;;;;;;;;8399498;27;20464;-71
2021/01/15 19:41:29;;;;;;;77.15;31.73;;;;;;;;;;8406923;27;20360;-74
2021/01/15 19:45:32;;;;;;;588.55;218.75;;;;;;;;;;8400080;27;20132;-72
2021/01/15 19:49:36;;;;;;;167.88;52.65;;;;;;;;;;8371395;27;20377;-73
2021/01/15 19:53:38;;;;;;;71.35;28.23;;;;;;;;;;8400139;27;20368;-73
2021/01/15 19:57:47;;;;;;;62.33;21.80;;;;;;;;;;8318924;27;20470;-70
2021/01/15 20:01:50;;;;;;;59.38;21.23;;;;;;;;;;8322479;28;20532;-73
2021/01/15 20:05:53;;;;;;;57.88;19.00;;;;;;;;;;8323061;28;20489;-70
2021/01/15 20:09:57;;;;;;;73.18;27.52;;;;;;;;;;8320352;28;20040;-73
2021/01/15 20:14:02;;;;;;;84.85;33.47;;;;;;;;;;8304505;28;20056;-73
2021/01/15 20:18:08;;;;;;;115.78;38.85;;;;;;;;;;8318624;28;20370;-71
2021/01/15 20:22:11;;;;;;;105.78;36.22;;;;;;;;;;8303961;28;20052;-70
2021/01/15 20:26:17;;;;;;;99.60;38.72;;;;;;;;;;8302609;28;20513;-70
2021/01/15 20:30:24;;;;;;;172.82;51.75;;;;;;;;;;8320360;28;20074;-70
2021/01/15 20:34:28;;;;;;;203.07;61.37;;;;;;;;;;8302176;28;20458;-69
2021/01/15 20:38:32;;;;;;;245.70;78.05;;;;;;;;;;8320214;28;20496;-69
2021/01/15 20:42:41;;;;;;;455.42;116.97;;;;;;;;;;8303224;28;20375;-72
2021/01/15 20:46:44;;;;;;;265.75;96.90;;;;;;;;;;8303447;28;20458;-69
2021/01/15 20:50:47;;;;;;;240.73;93.30;;;;;;;;;;8319115;28;20052;-72
2021/01/15 20:54:50;;;;;;;153.93;60.72;;;;;;;;;;8321781;28;20494;-72
2021/01/15 20:58:54;;;;;;;123.68;45.30;;;;;;;;;;8320605;28;20074;-69
2021/01/15 21:03:09;;;;;;;160.18;62.40;;;;;;;;;;8321772;28;20060;-71
2021/01/15 21:07:17;;;;;;;111.28;44.38;;;;;;;;;;8303478;28;20412;-70
2021/01/15 21:11:20;;;;;;;54.42;19.25;;;;;;;;;;8302846;28;20056;-70
2021/01/15 21:15:24;;;;;;;55.65;22.13;;;;;;;;;;8302635;28;20079;-71
2021/01/15 21:19:29;;;;;;;58.83;20.73;;;;;;;;;;8301384;28;20382;-73
2021/01/15 21:23:32;;;;;;;60.85;21.00;;;;;;;;;;8301669;28;20073;-74
2021/01/15 21:27:45;;;;;;;43.50;17.67;;;;;;;;;;8319527;28;20052;-71
2021/01/15 21:31:48;;;;;;;59.78;19.83;;;;;;;;;;8286480;28;20524;-73
2021/01/15 21:35:52;;;;;;;64.28;22.80;;;;;;;;;;8320289;28;20493;-74
2021/01/15 21:39:55;;;;;;;48.80;18.73;;;;;;;;;;8302397;28;20386;-72
2021/01/15 21:43:58;;;;;;;48.25;17.92;;;;;;;;;;8317341;28;20066;-72
2021/01/15 21:48:01;;;;;;;43.67;15.75;;;;;;;;;;8319055;28;20383;-73
2021/01/15 21:52:05;;;;;;;39.15;14.05;;;;;;;;;;8318525;28;20402;-72
2021/01/15 21:56:08;;;;;;;32.22;13.93;;;;;;;;;;8319816;28;20048;-71
2021/01/15 22:00:12;;;;;;;28.15;12.07;;;;;;;;;;8319467;28;20484;-73
2021/01/15 22:04:15;;;;;;;25.60;8.68;;;;;;;;;;8299634;28;20497;-73
2021/01/15 22:08:18;;;;;;;30.33;9.38;;;;;;;;;;8301611;28;20351;-72
2021/01/15 22:12:21;;;;;;;22.63;8.55;;;;;;;;;;8319132;28;20489;-73
2021/01/15 22:16:25;;;;;;;22.95;9.35;;;;;;;;;;8301788;28;20501;-71
2021/01/15 22:20:29;;;;;;;21.80;8.13;;;;;;;;;;8318585;28;20483;-72
2021/01/15 22:24:32;;;;;;;22.85;7.65;;;;;;;;;;8301292;28;20044;-71
2021/01/15 22:28:36;;;;;;;29.45;8.18;;;;;;;;;;8318574;28;20078;-70
2021/01/15 22:32:40;;;;;;;24.95;7.72;;;;;;;;;;8318256;28;20466;-71
2021/01/15 22:36:45;;;;;;;23.85;8.15;;;;;;;;;;8299841;28;20394;-72
2021/01/15 22:40:54;;;;;;;24.00;8.40;;;;;;;;;;8301076;28;20478;-70
2021/01/15 22:44:57;;;;;;;25.95;9.70;;;;;;;;;;8317791;28;20493;-70
2021/01/15 22:49:00;;;;;;;45.38;13.63;;;;;;;;;;8316900;28;20501;-70
2021/01/15 22:53:03;;;;;;;23.95;8.73;;;;;;;;;;8300131;28;20048;-72
2021/01/15 22:57:06;;;;;;;34.40;10.60;;;;;;;;;;8318430;28;20078;-72
2021/01/15 23:01:09;;;;;;;27.73;9.82;;;;;;;;;;8316243;28;20055;-69
2021/01/15 23:05:16;;;;;;;80.90;18.50;;;;;;;;;;8261799;28;20481;-71
2021/01/15 23:09:20;;;;;;;357.98;71.93;;;;;;;;;;8299262;28;20502;-71
2021/01/15 23:13:30;;;;;;;525.35;130.68;;;;;;;;;;8322923;28;20534;-69
2021/01/15 23:17:37;;;;;;;209.15;50.47;;;;;;;;;;8306827;28;20400;-71
2021/01/15 23:21:41;;;;;;;246.60;49.40;;;;;;;;;;8324952;28;20391;-72
2021/01/15 23:25:47;;;;;;;150.88;28.65;;;;;;;;;;8293680;28;20398;-70
2021/01/15 23:29:50;;;;;;;160.18;33.72;;;;;;;;;;8272906;28;20387;-69
2021/01/15 23:33:53;;;;;;;96.75;21.02;;;;;;;;;;8290379;28;20367;-71
2021/01/15 23:37:59;;;;;;;209.55;40.35;;;;;;;;;;8324028;28;20462;-69
2021/01/15 23:42:02;;;;;;;87.60;21.83;;;;;;;;;;8323750;28;20070;-70
2021/01/15 23:46:05;;;;;;;42.40;13.88;;;;;;;;;;8304786;28;20473;-72
2021/01/15 23:50:09;;;;;;;73.22;18.55;;;;;;;;;;8323834;28;20474;-72
2021/01/15 23:54:13;;;;;;;101.63;23.77;;;;;;;;;;8322973;28;20367;-71
2021/01/15 23:58:16;;;;;;;74.75;20.42;;;;;;;;;;8320678;28;20482;-72
